Time;durP1;ratioP1;P1;durP2;ratioP2;P2;SDS_P1;SDS_P2;PMS_P1;PMS_P2;Temp;Humidity;BMP_temperature;BMP_pressure;BME280_temperature;BME280_humidity;BME280_pressure;Samples;Min_cycle;Max_cycle;Signal;HPM_P1;HPM_P2
2022/08/14 00:02:26;;;;;;;8.30;6.75;;;;;;;;;;4978332;28;20208;-78
2022/08/14 00:04:58;;;;;;;7.63;7.03;;;;;;;;;;4978147;28;20226;-79
2022/08/14 00:07:29;;;;;;;8.30;7.53;;;;;;;;;;4978177;28;20214;-79
2022/08/14 00:09:57;;;;;;;8.20;7.35;;;;;;;;;;4977016;28;20281;-79
2022/08/14 00:12:47;;;;;;;8.23;7.40;;;;;;;;;;4978280;28;20264;-79
2022/08/14 00:15:26;;;;;;;8.10;6.93;;;;;;;;;;4977595;28;20198;-79
2022/08/14 00:18:05;;;;;;;7.95;7.25;;;;;;;;;;4977553;28;20210;-79
2022/08/14 00:20:35;;;;;;;7.53;6.93;;;;;;;;;;4977568;28;20205;-79
2022/08/14 00:23:12;;;;;;;8.63;7.75;;;;;;;;;;4977288;28;20214;-78
2022/08/14 00:25:45;;;;;;;8.30;7.50;;;;;;;;;;4977177;28;20211;-79
2022/08/14 00:28:32;;;;;;;7.65;6.95;;;;;;;;;;4977468;28;20328;-79
2022/08/14 00:31:04;;;;;;;8.20;7.40;;;;;;;;;;4977374;28;20714;-78
2022/08/14 00:33:33;;;;;;;8.27;7.45;;;;;;;;;;4977546;28;20605;-78
2022/08/14 00:36:20;;;;;;;7.97;7.20;;;;;;;;;;4977491;28;20695;-79
2022/08/14 00:39:12;;;;;;;7.97;7.28;;;;;;;;;;4977261;28;20280;-78
2022/08/14 00:41:41;;;;;;;8.23;7.53;;;;;;;;;;4977556;28;20213;-79
2022/08/14 00:44:10;;;;;;;8.48;7.78;;;;;;;;;;4977245;28;20654;-78
2022/08/14 00:46:39;;;;;;;8.88;7.65;;;;;;;;;;4976973;28;20301;-79
2022/08/14 00:49:11;;;;;;;8.55;7.70;;;;;;;;;;4977187;28;20313;-79
2022/08/14 00:51:43;;;;;;;8.93;8.23;;;;;;;;;;4976954;28;20198;-79
2022/08/14 00:54:15;;;;;;;7.93;7.32;;;;;;;;;;4977401;28;20201;-79
2022/08/14 00:56:50;;;;;;;8.60;7.80;;;;;;;;;;4977086;28;20269;-78
2022/08/14 00:59:23;;;;;;;8.25;7.55;;;;;;;;;;4976999;28;20222;-79
2022/08/14 01:01:51;;;;;;;7.78;7.18;;;;;;;;;;4977351;28;20237;-79
2022/08/14 01:04:22;;;;;;;8.40;7.60;;;;;;;;;;4976634;28;20205;-79
2022/08/14 01:07:10;;;;;;;8.25;7.55;;;;;;;;;;4976701;28;20706;-78
2022/08/14 01:09:42;;;;;;;7.85;7.15;;;;;;;;;;4976820;28;20670;-79
2022/08/14 01:12:12;;;;;;;8.57;7.68;;;;;;;;;;4976855;28;20210;-79
2022/08/14 01:14:55;;;;;;;9.00;7.70;;;;;;;;;;4976896;28;20194;-79
2022/08/14 01:21:02;;;;;;;8.68;7.85;;;;;;;;;;4976738;28;20285;-79
2022/08/14 01:23:09;;;;;;;8.55;7.72;;;;;;;;;;4975827;28;20217;-79
2022/08/14 01:25:45;;;;;;;9.07;8.18;;;;;;;;;;4976114;28;20273;-79
2022/08/14 01:28:13;;;;;;;8.18;7.47;;;;;;;;;;4976087;28;20229;-79
2022/08/14 01:31:04;;;;;;;8.30;7.43;;;;;;;;;;4976388;28;20218;-79
2022/08/14 01:33:33;;;;;;;7.75;7.07;;;;;;;;;;4976190;28;20207;-79
2022/08/14 01:36:23;;;;;;;7.95;7.22;;;;;;;;;;4975707;28;20261;-79
2022/08/14 01:38:56;;;;;;;8.07;7.38;;;;;;;;;;4975370;28;20233;-79
2022/08/14 01:41:26;;;;;;;8.15;7.45;;;;;;;;;;4976641;28;20209;-79
2022/08/14 01:44:00;;;;;;;12.02;8.18;;;;;;;;;;4976466;28;20638;-79
2022/08/14 01:46:30;;;;;;;8.50;7.80;;;;;;;;;;4976290;28;20640;-79
2022/08/14 01:49:05;;;;;;;8.77;7.82;;;;;;;;;;4976469;28;20232;-79
2022/08/14 01:51:35;;;;;;;8.40;7.60;;;;;;;;;;4975828;28;20256;-79
2022/08/14 01:54:07;;;;;;;8.10;7.30;;;;;;;;;;4975384;28;20206;-78
2022/08/14 01:56:38;;;;;;;7.85;7.00;;;;;;;;;;4975640;28;20619;-79
2022/08/14 01:59:08;;;;;;;8.98;7.82;;;;;;;;;;4975851;28;20233;-79
2022/08/14 02:01:37;;;;;;;9.88;7.60;;;;;;;;;;4975754;28;20187;-79
2022/08/14 02:04:09;;;;;;;8.90;8.10;;;;;;;;;;4975774;28;20186;-79
2022/08/14 02:06:58;;;;;;;8.10;7.40;;;;;;;;;;4975611;28;20201;-79
2022/08/14 02:09:29;;;;;;;8.65;7.80;;;;;;;;;;4975679;28;20226;-79
2022/08/14 02:11:59;;;;;;;9.80;8.55;;;;;;;;;;4975928;28;20198;-79
2022/08/14 02:14:30;;;;;;;9.05;7.97;;;;;;;;;;4975872;28;20189;-79
2022/08/14 02:17:00;;;;;;;9.57;8.57;;;;;;;;;;4975446;28;20211;-79
2022/08/14 02:19:29;;;;;;;8.82;8.07;;;;;;;;;;4975665;28;20568;-79
2022/08/14 02:22:01;;;;;;;9.25;8.13;;;;;;;;;;4975612;28;20214;-79
2022/08/14 02:24:32;;;;;;;9.57;8.00;;;;;;;;;;4975270;28;20217;-78
2022/08/14 02:27:13;;;;;;;9.05;8.15;;;;;;;;;;4975519;28;20233;-79
2022/08/14 02:30:01;;;;;;;8.93;8.13;;;;;;;;;;4975015;28;20222;-78
2022/08/14 02:32:30;;;;;;;9.05;8.25;;;;;;;;;;4975664;28;20210;-79
2022/08/14 02:35:09;;;;;;;9.40;8.30;;;;;;;;;;4975151;28;20197;-79
2022/08/14 02:37:39;;;;;;;9.95;7.88;;;;;;;;;;4975415;28;20624;-79
2022/08/14 02:40:17;;;;;;;9.13;8.40;;;;;;;;;;4975103;28;20198;-79
2022/08/14 02:42:45;;;;;;;9.60;8.55;;;;;;;;;;4974972;28;20228;-79
2022/08/14 02:45:24;;;;;;;9.68;8.80;;;;;;;;;;4975367;28;20256;-79
2022/08/14 02:48:06;;;;;;;8.73;7.93;;;;;;;;;;4975228;28;20186;-79
2022/08/14 02:50:54;;;;;;;9.40;8.55;;;;;;;;;;4975095;28;20276;-79
2022/08/14 02:53:23;;;;;;;9.60;8.70;;;;;;;;;;4974852;28;20667;-78
2022/08/14 02:55:55;;;;;;;9.45;8.55;;;;;;;;;;4975199;28;20213;-79
2022/08/14 02:58:30;;;;;;;9.93;8.07;;;;;;;;;;4974822;28;20572;-79
2022/08/14 03:00:59;;;;;;;9.23;8.38;;;;;;;;;;4975116;28;20209;-80
2022/08/14 03:03:29;;;;;;;9.75;8.75;;;;;;;;;;4975411;28;20655;-79
2022/08/14 03:05:59;;;;;;;9.48;8.65;;;;;;;;;;4975300;28;20260;-78
2022/08/14 03:08:30;;;;;;;8.70;7.95;;;;;;;;;;4974937;28;20222;-79
2022/08/14 03:11:05;;;;;;;8.65;7.95;;;;;;;;;;4974950;28;20233;-79
2022/08/14 03:13:36;;;;;;;8.98;8.07;;;;;;;;;;4975228;28;20209;-79
2022/08/14 03:16:06;;;;;;;8.75;7.95;;;;;;;;;;4975393;28;20679;-79
2022/08/14 03:18:48;;;;;;;9.50;8.48;;;;;;;;;;4974657;28;20280;-79
2022/08/14 03:21:20;;;;;;;9.57;8.68;;;;;;;;;;4974656;28;20186;-79
2022/08/14 03:23:50;;;;;;;9.10;8.40;;;;;;;;;;4974519;28;20225;-79
2022/08/14 03:26:23;;;;;;;8.95;8.10;;;;;;;;;;4975162;28;20229;-79
2022/08/14 03:28:58;;;;;;;9.20;8.40;;;;;;;;;;4974503;28;20233;-78
2022/08/14 03:31:28;;;;;;;9.00;8.20;;;;;;;;;;4974915;28;20649;-79
2022/08/14 03:33:57;;;;;;;8.80;8.10;;;;;;;;;;4974743;28;20236;-79
2022/08/14 03:36:31;;;;;;;9.63;8.43;;;;;;;;;;4974878;28;20216;-79
2022/08/14 03:39:20;;;;;;;9.18;8.45;;;;;;;;;;4974290;28;20276;-78
2022/08/14 03:41:53;;;;;;;9.10;8.20;;;;;;;;;;4974579;28;20202;-79
2022/08/14 03:44:22;;;;;;;8.60;7.90;;;;;;;;;;4974820;28;20214;-79
2022/08/14 03:47:11;;;;;;;9.40;8.52;;;;;;;;;;4978171;28;20256;-79
2022/08/14 03:49:44;;;;;;;9.40;8.60;;;;;;;;;;4978472;28;20256;-79
2022/08/14 03:52:17;;;;;;;8.88;8.18;;;;;;;;;;4978400;28;20573;-79
2022/08/14 03:55:06;;;;;;;9.77;8.15;;;;;;;;;;4978875;28;20214;-79
2022/08/14 03:57:36;;;;;;;9.38;8.57;;;;;;;;;;4978395;28;20210;-79
2022/08/14 04:00:10;;;;;;;9.88;8.90;;;;;;;;;;4978155;28;20613;-79
2022/08/14 04:02:58;;;;;;;9.80;8.85;;;;;;;;;;4977581;28;20264;-79
2022/08/14 04:05:27;;;;;;;9.52;8.73;;;;;;;;;;4977609;28;20202;-79
2022/08/14 04:07:57;;;;;;;9.80;8.90;;;;;;;;;;4977608;28;20209;-79
2022/08/14 04:10:45;;;;;;;9.80;8.98;;;;;;;;;;4977219;28;20214;-79
2022/08/14 04:13:17;;;;;;;11.38;9.82;;;;;;;;;;4977490;28;20254;-79
2022/08/14 04:15:45;;;;;;;9.75;8.88;;;;;;;;;;4977652;28;20194;-79
2022/08/14 04:18:31;;;;;;;9.77;8.98;;;;;;;;;;4977454;28;20225;-79
2022/08/14 04:21:01;;;;;;;10.07;9.07;;;;;;;;;;4977262;28;20225;-78
2022/08/14 04:23:32;;;;;;;9.77;8.88;;;;;;;;;;4977626;28;20213;-79
2022/08/14 04:26:02;;;;;;;10.02;9.23;;;;;;;;;;4977758;28;20212;-79
2022/08/14 04:28:32;;;;;;;10.00;9.02;;;;;;;;;;4977458;28;20221;-79
2022/08/14 04:31:21;;;;;;;9.73;8.93;;;;;;;;;;4977226;28;20754;-79
2022/08/14 04:34:09;;;;;;;9.43;8.68;;;;;;;;;;4977756;28;20202;-79
2022/08/14 04:45:24;;;;;;;10.02;9.10;;;;;;;;;;4976521;28;20188;-79
2022/08/14 04:48:15;;;;;;;10.38;9.32;;;;;;;;;;4976032;28;20643;-79
2022/08/14 04:51:05;;;;;;;9.70;8.90;;;;;;;;;;4975893;28;20209;-78
2022/08/14 04:53:35;;;;;;;9.80;8.90;;;;;;;;;;4976838;28;20256;-80
2022/08/14 04:56:11;;;;;;;9.77;8.85;;;;;;;;;;4977381;28;20209;-79
2022/08/14 04:59:03;;;;;;;8.85;7.95;;;;;;;;;;4977163;28;20241;-79
2022/08/14 05:01:40;;;;;;;9.75;8.85;;;;;;;;;;4977074;28;20197;-79
2022/08/14 05:04:13;;;;;;;9.15;8.38;;;;;;;;;;4976860;28;20190;-80
2022/08/14 05:06:47;;;;;;;9.70;8.77;;;;;;;;;;4977714;28;20224;-79
2022/08/14 05:09:16;;;;;;;10.00;8.60;;;;;;;;;;4976944;28;20597;-79
2022/08/14 05:11:46;;;;;;;9.43;8.52;;;;;;;;;;4976556;28;20214;-79
2022/08/14 05:14:17;;;;;;;8.85;7.85;;;;;;;;;;4976557;28;20212;-79
2022/08/14 05:17:07;;;;;;;9.30;8.40;;;;;;;;;;4976615;28;20318;-79
2022/08/14 05:19:35;;;;;;;8.63;7.80;;;;;;;;;;4976150;28;20229;-79
2022/08/14 05:22:24;;;;;;;8.73;7.90;;;;;;;;;;4976055;28;20284;-79
2022/08/14 05:24:54;;;;;;;8.77;7.97;;;;;;;;;;4976513;28;20190;-79
2022/08/14 05:27:23;;;;;;;9.50;8.00;;;;;;;;;;4976274;28;20253;-79
2022/08/14 05:29:53;;;;;;;8.93;8.13;;;;;;;;;;4976479;28;20240;-79
2022/08/14 05:32:26;;;;;;;8.40;7.70;;;;;;;;;;4975938;28;20213;-79
2022/08/14 05:34:56;;;;;;;8.18;7.53;;;;;;;;;;4976298;28;20194;-79
2022/08/14 05:37:26;;;;;;;8.70;7.90;;;;;;;;;;4976245;28;20232;-79
2022/08/14 05:39:56;;;;;;;8.93;8.13;;;;;;;;;;4976394;28;20313;-79
2022/08/14 05:42:26;;;;;;;8.80;8.10;;;;;;;;;;4976304;28;20253;-79
2022/08/14 05:45:01;;;;;;;9.05;8.23;;;;;;;;;;4976039;28;20194;-79
2022/08/14 05:47:32;;;;;;;8.27;7.55;;;;;;;;;;4975988;28;20228;-79
2022/08/14 05:50:08;;;;;;;8.70;7.80;;;;;;;;;;4975729;28;20261;-79
2022/08/14 05:52:46;;;;;;;8.48;7.68;;;;;;;;;;4975991;28;20206;-79
2022/08/14 05:55:15;;;;;;;8.35;7.70;;;;;;;;;;4976092;28;20217;-79
2022/08/14 05:57:50;;;;;;;8.57;7.88;;;;;;;;;;4976089;28;20185;-79
2022/08/14 06:00:20;;;;;;;8.88;8.05;;;;;;;;;;4975090;28;20194;-79
2022/08/14 06:02:57;;;;;;;8.60;7.90;;;;;;;;;;4975750;28;20568;-79
2022/08/14 06:05:28;;;;;;;8.70;7.90;;;;;;;;;;4975529;28;20195;-79
2022/08/14 06:07:57;;;;;;;8.52;7.72;;;;;;;;;;4975011;28;20202;-79
2022/08/14 06:10:26;;;;;;;7.85;7.18;;;;;;;;;;4975766;28;20283;-79
2022/08/14 06:12:56;;;;;;;8.38;7.68;;;;;;;;;;4975689;28;20237;-79
2022/08/14 06:15:25;;;;;;;7.93;7.22;;;;;;;;;;4975573;28;20210;-78
2022/08/14 06:17:59;;;;;;;8.35;7.55;;;;;;;;;;4975703;28;20646;-79
2022/08/14 06:20:29;;;;;;;8.90;7.90;;;;;;;;;;4975461;28;20261;-79
2022/08/14 06:22:58;;;;;;;8.77;7.82;;;;;;;;;;4975147;28;20210;-79
2022/08/14 06:25:28;;;;;;;8.40;7.60;;;;;;;;;;4975327;28;20232;-79
2022/08/14 06:27:57;;;;;;;8.43;7.63;;;;;;;;;;4975320;28;20590;-79
2022/08/14 06:30:30;;;;;;;8.18;7.57;;;;;;;;;;4974643;28;20663;-79
2022/08/14 06:33:16;;;;;;;9.85;8.45;;;;;;;;;;4974967;28;20225;-80
2022/08/14 06:35:45;;;;;;;8.57;7.30;;;;;;;;;;4975047;28;20190;-79
2022/08/14 06:38:16;;;;;;;8.13;7.40;;;;;;;;;;4974754;28;20699;-79
2022/08/14 06:40:46;;;;;;;8.55;7.65;;;;;;;;;;4974978;28;20210;-79
2022/08/14 06:43:18;;;;;;;9.63;8.00;;;;;;;;;;4975030;28;20206;-79
2022/08/14 06:45:47;;;;;;;8.70;7.90;;;;;;;;;;4975070;28;20189;-79
2022/08/14 06:48:24;;;;;;;8.38;7.60;;;;;;;;;;4975396;28;20331;-80
2022/08/14 06:50:53;;;;;;;8.52;7.82;;;;;;;;;;4974455;28;20548;-79
2022/08/14 06:53:21;;;;;;;7.85;7.22;;;;;;;;;;4974349;28;20222;-79
2022/08/14 06:55:57;;;;;;;7.93;7.18;;;;;;;;;;4955362;28;20210;-79
2022/08/14 06:58:30;;;;;;;7.80;7.20;;;;;;;;;;4955127;29;20367;-79
2022/08/14 07:06:52;;;;;;;7.72;7.13;;;;;;;;;;4955241;29;20596;-80
2022/08/14 07:09:23;;;;;;;7.60;6.93;;;;;;;;;;4955678;29;20704;-79
2022/08/14 07:11:51;;;;;;;7.50;6.80;;;;;;;;;;4955452;29;20249;-80
2022/08/14 07:14:20;;;;;;;7.30;6.80;;;;;;;;;;4955436;29;20313;-79
2022/08/14 07:16:49;;;;;;;7.70;7.00;;;;;;;;;;4955482;29;20628;-79
2022/08/14 07:19:23;;;;;;;7.57;6.88;;;;;;;;;;4955285;28;20309;-79
2022/08/14 07:21:52;;;;;;;10.68;7.35;;;;;;;;;;4964012;28;20839;-79
2022/08/14 07:24:20;;;;;;;8.43;7.28;;;;;;;;;;4978937;28;20189;-79
2022/08/14 07:26:59;;;;;;;7.57;6.93;;;;;;;;;;4978528;28;20201;-79
2022/08/14 07:29:28;;;;;;;7.63;7.03;;;;;;;;;;4978341;28;20230;-79
2022/08/14 07:31:57;;;;;;;7.63;6.90;;;;;;;;;;4979057;28;20205;-80
2022/08/14 07:34:28;;;;;;;7.93;7.22;;;;;;;;;;4978170;28;20230;-79
2022/08/14 07:37:08;;;;;;;8.27;7.47;;;;;;;;;;4978439;28;20256;-79
2022/08/14 07:39:37;;;;;;;7.45;6.85;;;;;;;;;;4978930;28;20214;-79
2022/08/14 07:42:11;;;;;;;8.88;7.10;;;;;;;;;;4977686;28;20261;-79
2022/08/14 07:44:40;;;;;;;7.82;7.22;;;;;;;;;;4978017;28;20208;-79
2022/08/14 07:47:14;;;;;;;7.50;6.90;;;;;;;;;;4978442;28;20248;-79
2022/08/14 07:49:52;;;;;;;8.05;7.45;;;;;;;;;;4978524;28;20711;-79
2022/08/14 07:52:22;;;;;;;8.13;7.32;;;;;;;;;;4978355;28;20281;-80
2022/08/14 07:55:01;;;;;;;7.80;7.20;;;;;;;;;;4977965;28;20186;-79
2022/08/14 07:57:44;;;;;;;7.95;7.18;;;;;;;;;;4979429;28;20630;-79
2022/08/14 08:00:18;;;;;;;8.32;7.65;;;;;;;;;;4978100;28;20313;-79
2022/08/14 08:02:59;;;;;;;8.40;7.70;;;;;;;;;;4977950;28;20201;-79
2022/08/14 08:05:29;;;;;;;7.18;6.63;;;;;;;;;;4977332;28;20233;-79
2022/08/14 08:07:58;;;;;;;7.75;7.13;;;;;;;;;;4966161;28;20570;-79
2022/08/14 08:10:35;;;;;;;7.47;6.93;;;;;;;;;;4970597;28;20249;-79
2022/08/14 08:13:25;;;;;;;8.65;7.90;;;;;;;;;;4959838;28;20222;-79
2022/08/14 08:15:57;;;;;;;8.45;7.68;;;;;;;;;;4984704;28;20288;-79
2022/08/14 08:18:27;;;;;;;8.13;7.43;;;;;;;;;;4978576;28;20225;-79
2022/08/14 08:20:59;;;;;;;8.18;7.35;;;;;;;;;;4963248;28;20207;-79
2022/08/14 08:23:29;;;;;;;8.18;7.55;;;;;;;;;;4958039;29;20273;-79
2022/08/14 08:26:08;;;;;;;7.78;7.05;;;;;;;;;;4958031;29;20214;-79
2022/08/14 08:28:36;;;;;;;7.95;7.32;;;;;;;;;;4957928;28;20226;-79
2022/08/14 08:31:12;;;;;;;8.32;7.55;;;;;;;;;;4957317;28;20217;-80
2022/08/14 08:33:42;;;;;;;8.57;7.80;;;;;;;;;;4964272;28;20217;-79
2022/08/14 08:36:18;;;;;;;8.05;7.28;;;;;;;;;;4977155;28;20206;-79
2022/08/14 08:38:48;;;;;;;7.32;6.63;;;;;;;;;;4976919;28;20281;-79
2022/08/14 08:41:43;;;;;;;7.10;6.50;;;;;;;;;;4977244;28;20245;-78
2022/08/14 08:44:12;;;;;;;8.60;7.22;;;;;;;;;;4977188;28;20205;-79
2022/08/14 08:47:04;;;;;;;7.78;7.07;;;;;;;;;;4977203;28;20596;-79
2022/08/14 08:49:41;;;;;;;7.70;7.07;;;;;;;;;;4977088;28;20702;-79
2022/08/14 08:52:22;;;;;;;8.98;7.15;;;;;;;;;;4977122;28;20228;-79
2022/08/14 08:54:58;;;;;;;8.07;7.28;;;;;;;;;;4976598;28;20297;-79
2022/08/14 08:57:34;;;;;;;7.93;7.32;;;;;;;;;;4976853;28;20191;-80
2022/08/14 09:00:12;;;;;;;7.63;7.00;;;;;;;;;;4968874;28;20683;-79
2022/08/14 09:02:56;;;;;;;7.53;6.70;;;;;;;;;;4957172;28;20237;-79
2022/08/14 09:05:24;;;;;;;8.65;6.65;;;;;;;;;;4957138;28;20190;-79
2022/08/14 09:07:55;;;;;;;7.32;6.68;;;;;;;;;;4957355;29;20210;-78
2022/08/14 09:10:24;;;;;;;8.20;7.07;;;;;;;;;;4957741;29;20290;-79
2022/08/14 09:12:56;;;;;;;7.85;7.15;;;;;;;;;;4957406;29;20561;-79
2022/08/14 09:15:24;;;;;;;7.38;6.78;;;;;;;;;;4964999;28;20221;-80
2022/08/14 09:18:03;;;;;;;7.82;7.13;;;;;;;;;;4995855;28;20193;-79
2022/08/14 09:20:32;;;;;;;7.20;6.55;;;;;;;;;;4996149;28;20205;-79
2022/08/14 09:23:06;;;;;;;7.28;6.78;;;;;;;;;;4995524;28;20645;-79
2022/08/14 09:25:36;;;;;;;7.80;6.97;;;;;;;;;;4995820;28;20181;-79
2022/08/14 09:28:25;;;;;;;7.28;6.57;;;;;;;;;;4995312;28;20228;-79
2022/08/14 09:30:56;;;;;;;7.63;6.93;;;;;;;;;;4995940;28;20190;-80
2022/08/14 09:33:43;;;;;;;8.25;7.50;;;;;;;;;;4995183;28;20205;-79
2022/08/14 09:36:37;;;;;;;8.32;7.47;;;;;;;;;;4979633;28;20204;-79
2022/08/14 09:39:16;;;;;;;8.13;7.40;;;;;;;;;;4976603;28;20660;-80
2022/08/14 09:42:00;;;;;;;7.50;6.90;;;;;;;;;;4976100;28;20277;-77
2022/08/14 09:44:53;;;;;;;7.95;7.25;;;;;;;;;;4976540;28;20606;-79
2022/08/14 09:47:40;;;;;;;8.43;7.53;;;;;;;;;;4974805;28;20663;-79
2022/08/14 09:50:16;;;;;;;8.30;7.00;;;;;;;;;;4956511;28;20285;-79
2022/08/14 09:52:51;;;;;;;7.40;6.82;;;;;;;;;;4976996;28;20196;-80
2022/08/14 09:55:26;;;;;;;7.93;7.13;;;;;;;;;;4975636;28;20257;-79
2022/08/14 09:58:10;;;;;;;7.47;6.78;;;;;;;;;;4977364;28;20210;-80
2022/08/14 10:00:48;;;;;;;7.50;6.82;;;;;;;;;;4971009;28;20206;-80
2022/08/14 10:03:29;;;;;;;7.90;7.20;;;;;;;;;;4966482;28;20291;-80
2022/08/14 10:06:08;;;;;;;7.15;6.55;;;;;;;;;;4976254;28;20186;-79
2022/08/14 10:08:51;;;;;;;7.43;6.72;;;;;;;;;;4975863;28;20228;-79
2022/08/14 10:11:22;;;;;;;7.78;7.07;;;;;;;;;;4975684;28;20214;-79
2022/08/14 10:13:53;;;;;;;7.28;6.63;;;;;;;;;;4976078;28;20190;-81
2022/08/14 10:19:14;;;;;;;7.10;6.40;;;;;;;;;;4976095;28;20638;-80
2022/08/14 10:21:57;;;;;;;7.60;7.00;;;;;;;;;;4963734;28;20234;-79
2022/08/14 10:24:45;;;;;;;7.20;6.57;;;;;;;;;;4957494;28;20220;-78
2022/08/14 10:27:22;;;;;;;7.43;6.78;;;;;;;;;;4964836;28;20205;-79
2022/08/14 10:29:51;;;;;;;6.88;6.30;;;;;;;;;;4977090;28;20253;-80
2022/08/14 10:32:21;;;;;;;6.75;6.15;;;;;;;;;;4978750;28;20206;-80
2022/08/14 10:35:05;;;;;;;6.82;6.32;;;;;;;;;;4977849;28;20218;-80
2022/08/14 10:37:41;;;;;;;7.30;6.70;;;;;;;;;;4977190;28;20200;-78
2022/08/14 10:40:12;;;;;;;6.68;6.07;;;;;;;;;;4977067;28;20236;-78
2022/08/14 10:43:03;;;;;;;7.18;6.53;;;;;;;;;;4976337;28;20205;-79
2022/08/14 10:45:32;;;;;;;7.00;6.40;;;;;;;;;;4971717;28;20194;-79
2022/08/14 10:48:16;;;;;;;6.70;6.07;;;;;;;;;;4977178;28;20698;-78
2022/08/14 10:51:02;;;;;;;5.90;5.50;;;;;;;;;;4972641;28;20209;-79
2022/08/14 10:53:38;;;;;;;7.05;6.50;;;;;;;;;;4989984;28;20201;-80
2022/08/14 10:56:09;;;;;;;6.95;6.25;;;;;;;;;;4978194;28;20302;-79
2022/08/14 10:59:03;;;;;;;5.97;5.55;;;;;;;;;;4972196;28;20226;-79
2022/08/14 11:01:32;;;;;;;7.32;6.63;;;;;;;;;;4978080;28;20206;-80
2022/08/14 11:04:27;;;;;;;7.05;6.22;;;;;;;;;;4970354;28;20648;-80
2022/08/14 11:07:01;;;;;;;8.00;6.38;;;;;;;;;;4978892;28;20705;-80
2022/08/14 11:09:45;;;;;;;6.57;6.07;;;;;;;;;;4981870;28;20698;-81
2022/08/14 11:12:22;;;;;;;7.10;6.28;;;;;;;;;;4975124;28;20202;-76
2022/08/14 11:15:09;;;;;;;8.13;6.30;;;;;;;;;;4965425;28;20230;-75
2022/08/14 11:17:38;;;;;;;7.05;6.38;;;;;;;;;;4961527;28;20201;-75
2022/08/14 11:20:14;;;;;;;6.85;6.22;;;;;;;;;;4964759;28;20232;-76
2022/08/14 11:22:45;;;;;;;6.72;6.13;;;;;;;;;;4965761;28;20217;-75
2022/08/14 11:28:12;;;;;;;6.88;6.18;;;;;;;;;;4972424;28;20312;-75
2022/08/14 11:30:50;;;;;;;6.97;6.35;;;;;;;;;;4972538;28;20209;-76
2022/08/14 11:33:23;;;;;;;6.97;6.40;;;;;;;;;;4970602;28;20565;-74
2022/08/14 11:35:51;;;;;;;7.28;6.20;;;;;;;;;;4964367;28;20226;-75
2022/08/14 11:38:27;;;;;;;9.13;6.43;;;;;;;;;;4969791;28;20248;-74
2022/08/14 11:40:58;;;;;;;7.25;6.53;;;;;;;;;;4973118;28;20205;-76
2022/08/14 11:43:28;;;;;;;6.90;6.13;;;;;;;;;;4970528;28;20206;-75
2022/08/14 11:46:01;;;;;;;6.85;6.25;;;;;;;;;;4968165;28;20269;-74
2022/08/14 11:48:33;;;;;;;6.90;6.30;;;;;;;;;;4965588;28;20231;-75
2022/08/14 11:51:37;;;;;;;6.70;6.10;;;;;;;;;;4970449;28;20206;-75
2022/08/14 11:54:22;;;;;;;6.75;6.25;;;;;;;;;;4968702;28;20674;-75
2022/08/14 11:57:05;;;;;;;7.00;6.30;;;;;;;;;;4967919;28;20214;-75
2022/08/14 11:59:33;;;;;;;7.28;6.57;;;;;;;;;;4968579;28;20226;-74
2022/08/14 12:02:14;;;;;;;6.80;6.20;;;;;;;;;;4966488;28;20201;-74
2022/08/14 12:05:05;;;;;;;6.63;6.13;;;;;;;;;;4972902;28;20198;-74
2022/08/14 12:07:37;;;;;;;7.88;6.68;;;;;;;;;;4968060;28;20206;-74
2022/08/14 12:10:18;;;;;;;6.93;6.40;;;;;;;;;;4967031;28;20312;-74
2022/08/14 12:12:55;;;;;;;7.03;6.43;;;;;;;;;;4965297;28;20264;-74
2022/08/14 12:15:30;;;;;;;7.47;6.75;;;;;;;;;;4974802;28;20236;-75
2022/08/14 12:18:01;;;;;;;6.55;5.97;;;;;;;;;;4968180;28;20213;-75
2022/08/14 12:20:32;;;;;;;6.60;5.93;;;;;;;;;;4974495;28;20787;-75
2022/08/14 12:23:21;;;;;;;6.93;6.25;;;;;;;;;;4971651;28;20218;-75
2022/08/14 12:25:50;;;;;;;6.53;5.93;;;;;;;;;;4974839;28;20208;-75
2022/08/14 12:28:39;;;;;;;7.35;6.32;;;;;;;;;;4966824;28;20223;-75
2022/08/14 12:31:27;;;;;;;6.28;5.53;;;;;;;;;;4974568;28;20201;-75
2022/08/14 12:34:14;;;;;;;6.10;5.50;;;;;;;;;;4963185;28;20202;-75
2022/08/14 12:36:50;;;;;;;6.63;6.03;;;;;;;;;;4970997;28;20233;-75
2022/08/14 12:39:20;;;;;;;6.82;6.18;;;;;;;;;;4972026;28;20229;-75
2022/08/14 12:41:51;;;;;;;8.30;5.82;;;;;;;;;;4971868;28;20240;-75
2022/08/14 12:44:30;;;;;;;6.30;5.70;;;;;;;;;;4969632;28;20209;-75
2022/08/14 12:47:11;;;;;;;7.03;6.32;;;;;;;;;;4965879;28;20210;-75
2022/08/14 12:49:52;;;;;;;6.68;6.13;;;;;;;;;;4972870;28;20236;-75
2022/08/14 12:52:28;;;;;;;6.72;6.18;;;;;;;;;;4962546;28;20204;-75
2022/08/14 12:55:11;;;;;;;6.22;5.70;;;;;;;;;;4975096;28;20256;-75
2022/08/14 12:57:41;;;;;;;6.40;5.80;;;;;;;;;;4973713;28;20552;-75
2022/08/14 13:00:13;;;;;;;6.35;5.75;;;;;;;;;;4970547;28;20298;-75
2022/08/14 13:02:52;;;;;;;6.63;6.03;;;;;;;;;;4968921;28;20281;-75
2022/08/14 13:05:25;;;;;;;6.70;6.18;;;;;;;;;;4972786;28;20289;-75
2022/08/14 13:07:56;;;;;;;7.07;5.70;;;;;;;;;;4969521;28;20668;-75
2022/08/14 13:10:26;;;;;;;8.98;5.88;;;;;;;;;;4970077;28;20210;-76
2022/08/14 13:13:16;;;;;;;6.68;5.63;;;;;;;;;;4964916;28;20617;-75
2022/08/14 13:15:46;;;;;;;6.05;5.55;;;;;;;;;;4969850;28;20248;-75
2022/08/14 13:18:15;;;;;;;6.35;5.85;;;;;;;;;;4973701;28;20226;-75
2022/08/14 13:20:45;;;;;;;5.97;5.47;;;;;;;;;;4975409;28;20208;-75
2022/08/14 13:23:27;;;;;;;6.13;5.50;;;;;;;;;;4971199;28;20652;-75
2022/08/14 13:26:02;;;;;;;5.70;5.00;;;;;;;;;;4966782;28;20201;-75
2022/08/14 13:28:31;;;;;;;5.72;5.30;;;;;;;;;;4971484;28;20276;-76
2022/08/14 13:31:09;;;;;;;6.22;5.63;;;;;;;;;;4970070;28;20205;-76
2022/08/14 13:33:39;;;;;;;6.60;6.00;;;;;;;;;;4972031;28;20276;-76
2022/08/14 13:36:10;;;;;;;6.18;5.57;;;;;;;;;;4970942;28;20722;-75
2022/08/14 13:38:52;;;;;;;5.07;4.68;;;;;;;;;;4959934;28;20242;-75
2022/08/14 13:41:23;;;;;;;5.18;4.70;;;;;;;;;;4966403;28;20208;-76
2022/08/14 13:43:59;;;;;;;5.55;4.78;;;;;;;;;;4963236;28;20297;-76
2022/08/14 13:46:28;;;;;;;5.68;5.15;;;;;;;;;;4972084;28;20210;-76
2022/08/14 13:48:58;;;;;;;7.57;4.75;;;;;;;;;;4972294;28;20782;-75
2022/08/14 13:51:31;;;;;;;5.55;5.05;;;;;;;;;;4966131;28;20655;-75
2022/08/14 13:54:02;;;;;;;4.78;4.38;;;;;;;;;;4958052;28;20243;-75
2022/08/14 13:56:39;;;;;;;5.22;4.80;;;;;;;;;;4966995;28;20238;-75
2022/08/14 13:59:10;;;;;;;5.80;5.10;;;;;;;;;;4966627;28;20213;-75
2022/08/14 14:01:40;;;;;;;5.63;5.03;;;;;;;;;;4971674;28;20272;-76
2022/08/14 14:04:13;;;;;;;4.93;4.53;;;;;;;;;;4969422;28;20205;-75
2022/08/14 14:06:49;;;;;;;5.20;4.70;;;;;;;;;;4967504;28;21657;-76
2022/08/14 14:09:22;;;;;;;5.10;4.68;;;;;;;;;;4970607;28;20710;-75
2022/08/14 14:11:54;;;;;;;5.40;4.60;;;;;;;;;;4968677;28;20213;-75
2022/08/14 14:14:27;;;;;;;5.07;4.43;;;;;;;;;;4964912;28;20217;-75
2022/08/14 14:17:16;;;;;;;4.88;4.47;;;;;;;;;;4961003;28;20262;-75
2022/08/14 14:19:45;;;;;;;5.13;4.72;;;;;;;;;;4968224;28;20241;-75
2022/08/14 14:22:16;;;;;;;5.43;4.75;;;;;;;;;;4970811;28;20220;-75
2022/08/14 14:25:05;;;;;;;5.00;4.43;;;;;;;;;;4966438;28;20237;-75
2022/08/14 14:27:35;;;;;;;4.85;4.53;;;;;;;;;;4963932;28;20225;-74
2022/08/14 14:30:09;;;;;;;4.90;4.28;;;;;;;;;;4964428;28;20337;-75
2022/08/14 14:32:58;;;;;;;5.55;5.00;;;;;;;;;;4966749;28;20580;-75
2022/08/14 14:35:34;;;;;;;5.55;5.05;;;;;;;;;;4960993;28;20257;-75
2022/08/14 14:38:09;;;;;;;5.63;4.80;;;;;;;;;;4965656;28;20252;-75
2022/08/14 14:40:39;;;;;;;4.95;4.65;;;;;;;;;;4960160;28;20755;-76
2022/08/14 14:43:25;;;;;;;5.55;5.15;;;;;;;;;;4963532;28;20880;-75
2022/08/14 14:45:55;;;;;;;5.60;5.20;;;;;;;;;;4968408;28;20214;-76
2022/08/14 14:48:28;;;;;;;5.88;5.38;;;;;;;;;;4963793;28;20228;-75
2022/08/14 14:51:00;;;;;;;6.13;5.53;;;;;;;;;;4963812;28;20296;-75
2022/08/14 14:53:33;;;;;;;6.15;5.57;;;;;;;;;;4965013;28;20203;-75
2022/08/14 14:56:07;;;;;;;7.38;6.00;;;;;;;;;;4971751;28;20212;-75
2022/08/14 14:58:56;;;;;;;6.05;5.30;;;;;;;;;;4969051;28;20257;-75
2022/08/14 15:01:25;;;;;;;5.88;4.90;;;;;;;;;;4969937;28;20687;-76
2022/08/14 15:03:55;;;;;;;5.50;5.00;;;;;;;;;;4961194;28;20202;-75
2022/08/14 15:06:24;;;;;;;7.72;5.28;;;;;;;;;;4966081;28;20626;-75
2022/08/14 15:08:59;;;;;;;5.68;5.07;;;;;;;;;;4966082;28;20229;-75
2022/08/14 15:11:28;;;;;;;6.40;5.90;;;;;;;;;;4970002;28;20566;-75
2022/08/14 15:13:57;;;;;;;6.40;5.75;;;;;;;;;;4962800;28;20213;-75
2022/08/14 15:16:27;;;;;;;6.10;5.60;;;;;;;;;;4970713;28;20660;-75
2022/08/14 15:18:56;;;;;;;6.28;5.75;;;;;;;;;;4625377;28;9999771;-76
2022/08/14 15:21:24;;;;;;;6.68;6.05;;;;;;;;;;4968187;28;20305;-75
2022/08/14 15:23:54;;;;;;;6.07;5.57;;;;;;;;;;4966148;28;20252;-75
2022/08/14 15:26:25;;;;;;;6.00;5.53;;;;;;;;;;4968077;28;20205;-75
2022/08/14 15:29:00;;;;;;;6.53;6.03;;;;;;;;;;4966740;28;20714;-75
2022/08/14 15:31:32;;;;;;;6.25;5.80;;;;;;;;;;4958643;28;20205;-76
2022/08/14 15:34:12;;;;;;;6.00;5.60;;;;;;;;;;4963819;28;20217;-75
2022/08/14 15:37:00;;;;;;;6.28;5.57;;;;;;;;;;4955576;28;20221;-75
2022/08/14 15:39:29;;;;;;;6.00;5.50;;;;;;;;;;4963335;28;20229;-76
2022/08/14 15:42:05;;;;;;;6.53;5.93;;;;;;;;;;4969428;28;20256;-75
2022/08/14 15:44:44;;;;;;;6.28;5.78;;;;;;;;;;4969334;28;20213;-75
2022/08/14 15:47:28;;;;;;;6.85;6.30;;;;;;;;;;4970642;28;20214;-75
2022/08/14 15:49:58;;;;;;;6.97;6.28;;;;;;;;;;4968221;28;20240;-74
2022/08/14 15:52:29;;;;;;;8.23;6.32;;;;;;;;;;4971284;28;20301;-75
2022/08/14 15:55:03;;;;;;;6.80;6.20;;;;;;;;;;4969026;28;20591;-74